Time;durP1;ratioP1;P1;durP2;ratioP2;P2;SDS_P1;SDS_P2;PMS_P1;PMS_P2;Temp;Humidity;BMP_temperature;BMP_pressure;BME280_temperature;BME280_humidity;BME280_pressure;Samples;Min_cycle;Max_cycle;Signal;HPM_P1;HPM_P2
2021/07/07 00:01:20;;;;;;;2.08;0.77;;;22.80;60.30;;;;;;5013605;28;20529;-67
2021/07/07 00:03:46;;;;;;;3.38;0.75;;;22.80;60.30;;;;;;5013413;28;20091;-67
2021/07/07 00:06:11;;;;;;;2.15;0.70;;;22.80;60.30;;;;;;5013424;28;20109;-67
2021/07/07 00:08:37;;;;;;;2.15;0.60;;;22.70;60.30;;;;;;5013532;28;20033;-67
2021/07/07 00:11:03;;;;;;;1.38;0.65;;;22.80;60.30;;;;;;5013482;28;20041;-67
2021/07/07 00:13:29;;;;;;;1.55;0.60;;;22.70;60.40;;;;;;5013732;28;20097;-67
2021/07/07 00:15:54;;;;;;;1.83;0.63;;;22.70;60.30;;;;;;5013446;28;20088;-67
2021/07/07 00:18:20;;;;;;;0.88;0.50;;;22.70;60.40;;;;;;5013348;28;20415;-67
2021/07/07 00:23:17;;;;;;;2.30;0.77;;;22.70;60.30;;;;;;5013727;28;20057;-67
2021/07/07 00:25:43;;;;;;;0.80;0.50;;;22.70;60.40;;;;;;5013234;28;20057;-67
2021/07/07 00:28:08;;;;;;;1.98;0.70;;;22.60;60.30;;;;;;5013690;28;20025;-67
2021/07/07 00:30:35;;;;;;;3.33;1.35;;;22.70;60.40;;;;;;5013205;28;20382;-67
2021/07/07 00:33:00;;;;;;;1.50;0.68;;;22.60;60.40;;;;;;5013229;28;20501;-67
2021/07/07 00:35:26;;;;;;;1.88;0.70;;;22.60;60.50;;;;;;5013374;28;20045;-67
2021/07/07 00:37:52;;;;;;;1.23;0.60;;;22.50;60.60;;;;;;5028544;28;20116;-67
2021/07/07 00:40:18;;;;;;;0.85;0.60;;;22.60;60.50;;;;;;5013389;28;20022;-67
2021/07/07 00:42:44;;;;;;;2.92;0.82;;;22.60;60.50;;;;;;5013282;28;20168;-67
2021/07/07 00:45:10;;;;;;;2.28;0.63;;;22.60;60.50;;;;;;5013227;28;20057;-67
2021/07/07 00:47:36;;;;;;;1.50;0.70;;;22.50;60.60;;;;;;5013398;28;20371;-67
2021/07/07 00:50:02;;;;;;;2.35;0.60;;;22.50;60.60;;;;;;5013708;28;20052;-67
2021/07/07 00:52:28;;;;;;;1.80;0.65;;;22.50;60.60;;;;;;5020795;28;20358;-67
2021/07/07 00:54:54;;;;;;;1.60;0.70;;;22.50;60.50;;;;;;5017488;28;20018;-67
2021/07/07 00:57:20;;;;;;;1.73;0.73;;;22.50;60.60;;;;;;5017128;28;20037;-67
2021/07/07 00:59:46;;;;;;;3.83;0.77;;;22.50;60.70;;;;;;5017018;28;20096;-68
2021/07/07 01:02:16;;;;;;;3.45;0.70;;;22.50;60.60;;;;;;5017064;28;20481;-67
2021/07/07 01:04:42;;;;;;;2.25;0.70;;;22.50;60.60;;;;;;5016990;28;20030;-68
2021/07/07 01:07:07;;;;;;;2.85;0.75;;;22.50;60.60;;;;;;5016792;28;20028;-67
2021/07/07 01:09:33;;;;;;;1.73;0.90;;;22.40;60.70;;;;;;5016786;28;20037;-68
2021/07/07 01:12:00;;;;;;;1.00;0.55;;;22.40;60.70;;;;;;5016691;28;20030;-68
2021/07/07 01:14:25;;;;;;;2.90;0.70;;;22.50;60.70;;;;;;5016600;28;20088;-67
2021/07/07 01:16:51;;;;;;;1.77;0.60;;;22.50;60.60;;;;;;5016784;28;20066;-68
2021/07/07 01:19:17;;;;;;;3.40;0.75;;;22.40;60.80;;;;;;5016656;28;20018;-67
2021/07/07 01:21:47;;;;;;;1.40;0.57;;;22.40;60.70;;;;;;5016651;28;20110;-67
2021/07/07 01:24:14;;;;;;;2.15;0.63;;;22.40;60.70;;;;;;5017271;28;20018;-67
2021/07/07 01:26:40;;;;;;;1.77;0.70;;;22.40;60.80;;;;;;5016912;28;20026;-67
2021/07/07 01:29:06;;;;;;;2.05;0.70;;;22.40;60.70;;;;;;5016351;28;20363;-67
2021/07/07 01:31:32;;;;;;;1.92;0.80;;;22.30;60.80;;;;;;5016404;28;20029;-68
2021/07/07 01:33:58;;;;;;;1.70;0.70;;;22.40;60.80;;;;;;5016487;28;20053;-67
2021/07/07 01:36:23;;;;;;;3.10;0.82;;;22.30;60.80;;;;;;5016200;28;20076;-68
2021/07/07 01:38:49;;;;;;;1.90;0.60;;;22.30;60.80;;;;;;5017026;28;20021;-67
2021/07/07 01:41:14;;;;;;;0.85;0.50;;;22.30;60.90;;;;;;5016729;28;20029;-68
2021/07/07 01:43:40;;;;;;;1.52;0.63;;;22.30;60.80;;;;;;5016876;28;20049;-67
2021/07/07 01:46:05;;;;;;;1.58;0.70;;;22.30;60.80;;;;;;5016536;28;20041;-67
2021/07/07 01:48:31;;;;;;;2.08;0.75;;;22.30;60.90;;;;;;5016431;28;20022;-67
2021/07/07 01:50:56;;;;;;;2.10;0.73;;;22.30;60.90;;;;;;5016002;28;20474;-68
2021/07/07 01:53:22;;;;;;;2.35;0.90;;;22.20;60.90;;;;;;5015976;28;20034;-67
2021/07/07 01:55:47;;;;;;;3.03;0.85;;;22.30;60.80;;;;;;5015788;28;20072;-67
2021/07/07 01:58:13;;;;;;;0.85;0.55;;;22.20;60.90;;;;;;5015781;28;20026;-67
2021/07/07 02:00:39;;;;;;;1.58;0.63;;;22.20;60.90;;;;;;5015769;28;20026;-67
2021/07/07 02:03:04;;;;;;;1.40;0.70;;;22.20;60.90;;;;;;5015588;28;20037;-67
2021/07/07 02:05:33;;;;;;;4.43;1.10;;;22.20;60.90;;;;;;5016522;28;20065;-67
2021/07/07 02:08:01;;;;;;;1.63;0.68;;;22.20;60.90;;;;;;5015764;28;20030;-68
2021/07/07 02:10:26;;;;;;;1.90;0.70;;;22.20;60.80;;;;;;5015586;28;20466;-67
2021/07/07 02:12:52;;;;;;;2.00;0.63;;;22.20;60.90;;;;;;5015895;28;20041;-68
2021/07/07 02:15:22;;;;;;;1.60;0.70;;;22.20;61.00;;;;;;5015439;28;20030;-68
2021/07/07 02:17:48;;;;;;;1.27;0.55;;;22.20;60.90;;;;;;5015469;28;20030;-67
2021/07/07 02:20:15;;;;;;;1.83;0.80;;;22.10;61.00;;;;;;5015481;28;20474;-68
2021/07/07 02:22:41;;;;;;;1.77;0.55;;;22.10;61.00;;;;;;5018474;28;20451;-68
2021/07/07 02:25:14;;;;;;;0.85;0.63;;;22.10;61.00;;;;;;5018531;28;20057;-68
2021/07/07 02:27:39;;;;;;;1.20;0.55;;;22.10;61.00;;;;;;5015406;28;20026;-67
2021/07/07 02:30:08;;;;;;;3.50;0.77;;;22.10;61.00;;;;;;5015245;28;20567;-68
2021/07/07 02:32:34;;;;;;;2.08;0.63;;;22.10;61.00;;;;;;5014959;28;20054;-67
2021/07/07 02:34:59;;;;;;;1.17;0.70;;;22.10;61.00;;;;;;5030470;28;20424;-68
2021/07/07 02:37:25;;;;;;;2.47;0.70;;;22.10;61.00;;;;;;5015126;28;20034;-67
2021/07/07 02:39:50;;;;;;;1.45;0.60;;;22.10;61.00;;;;;;5015226;28;20029;-68
2021/07/07 02:42:16;;;;;;;3.63;0.70;;;22.10;61.00;;;;;;5015115;28;20430;-68
2021/07/07 02:44:43;;;;;;;2.28;0.65;;;22.10;60.90;;;;;;5015251;28;20026;-68
2021/07/07 02:47:09;;;;;;;2.13;0.60;;;22.10;61.00;;;;;;5015159;28;20021;-67
2021/07/07 02:49:35;;;;;;;2.10;0.70;;;22.00;61.00;;;;;;5016170;28;20028;-67
2021/07/07 02:52:00;;;;;;;3.33;0.95;;;22.00;61.00;;;;;;5015054;28;20029;-68
2021/07/07 02:54:26;;;;;;;1.55;0.75;;;22.00;61.00;;;;;;5014586;28;20034;-68
2021/07/07 02:56:51;;;;;;;0.95;0.50;;;22.00;61.00;;;;;;5029912;28;20041;-67
2021/07/07 02:59:17;;;;;;;1.90;0.73;;;22.00;61.00;;;;;;5014917;28;20026;-68
2021/07/07 03:01:42;;;;;;;3.85;0.80;;;22.00;61.00;;;;;;5014826;28;20026;-68
2021/07/07 03:04:08;;;;;;;2.40;0.80;;;22.00;61.00;;;;;;5014611;28;20022;-67
2021/07/07 03:06:33;;;;;;;1.88;0.70;;;22.00;61.00;;;;;;5014598;28;20477;-67
2021/07/07 03:09:01;;;;;;;2.88;0.85;;;22.00;61.00;;;;;;5014480;28;20448;-67
2021/07/07 03:11:26;;;;;;;2.08;0.63;;;22.00;60.90;;;;;;5014550;28;20033;-68
2021/07/07 03:13:52;;;;;;;2.25;0.55;;;22.00;61.00;;;;;;5014296;28;20146;-67
2021/07/07 03:16:17;;;;;;;1.67;0.80;;;22.00;61.00;;;;;;5013719;28;20069;-67
2021/07/07 03:18:43;;;;;;;1.63;0.73;;;22.00;61.00;;;;;;5014285;28;20022;-67
2021/07/07 03:21:11;;;;;;;1.65;0.60;;;22.00;61.10;;;;;;5014301;28;20021;-67
2021/07/07 03:23:36;;;;;;;2.38;0.70;;;22.00;61.00;;;;;;5014383;28;20038;-67
2021/07/07 03:26:02;;;;;;;6.07;0.68;;;22.00;61.00;;;;;;5014234;28;20026;-68
2021/07/07 03:28:27;;;;;;;2.35;0.65;;;22.00;61.00;;;;;;5014002;28;20041;-67
2021/07/07 03:30:54;;;;;;;2.42;0.60;;;22.00;61.00;;;;;;5014050;28;20022;-68
2021/07/07 03:33:19;;;;;;;2.17;1.23;;;21.90;61.10;;;;;;5020968;28;20077;-68
2021/07/07 03:35:45;;;;;;;2.05;0.70;;;21.90;61.10;;;;;;5014455;28;20263;-68
2021/07/07 03:38:11;;;;;;;1.77;0.60;;;22.00;61.00;;;;;;5014545;28;20026;-68
2021/07/07 03:40:38;;;;;;;2.28;0.70;;;21.90;61.00;;;;;;5014513;28;20022;-67
2021/07/07 03:43:03;;;;;;;1.77;0.80;;;21.90;61.10;;;;;;5014382;28;20189;-67
2021/07/07 03:45:29;;;;;;;1.73;0.82;;;21.90;61.00;;;;;;5014667;28;20114;-68
2021/07/07 03:47:55;;;;;;;2.50;0.68;;;21.90;61.00;;;;;;5013945;28;20038;-68
2021/07/07 03:50:21;;;;;;;1.17;0.50;;;21.90;61.00;;;;;;5012764;28;20018;-68
2021/07/07 03:52:48;;;;;;;1.20;0.63;;;21.90;61.00;;;;;;5013808;28;20039;-67
2021/07/07 03:55:16;;;;;;;1.73;0.60;;;21.90;61.00;;;;;;5013820;28;20026;-68
2021/07/07 03:57:41;;;;;;;1.55;0.65;;;21.80;61.00;;;;;;5013696;28;20037;-68
2021/07/07 04:00:17;;;;;;;1.20;0.50;;;21.90;60.90;;;;;;5013968;28;20026;-68
2021/07/07 04:02:42;;;;;;;1.73;0.57;;;21.80;61.00;;;;;;5013914;28;20026;-67
2021/07/07 04:05:09;;;;;;;1.27;0.68;;;21.80;61.00;;;;;;5013759;28;20398;-67
2021/07/07 04:07:35;;;;;;;2.45;0.88;;;21.80;61.00;;;;;;5028710;28;20033;-68
2021/07/07 04:10:02;;;;;;;1.63;0.68;;;21.80;61.00;;;;;;5013585;28;20386;-68
2021/07/07 04:12:28;;;;;;;1.95;0.73;;;21.80;61.00;;;;;;5013315;28;20022;-68
2021/07/07 04:14:53;;;;;;;1.70;0.75;;;21.80;61.00;;;;;;5013243;28;20041;-68
2021/07/07 04:17:18;;;;;;;2.10;0.60;;;21.80;60.90;;;;;;5013141;28;20042;-68
2021/07/07 04:19:44;;;;;;;1.58;0.70;;;21.80;60.90;;;;;;5013501;28;20109;-68
2021/07/07 04:22:10;;;;;;;2.10;0.80;;;21.80;60.90;;;;;;5013353;28;20034;-68
2021/07/07 04:24:35;;;;;;;2.00;0.70;;;21.80;60.90;;;;;;5013266;28;20022;-67
2021/07/07 04:27:01;;;;;;;3.20;0.68;;;21.80;61.00;;;;;;5013678;28;20032;-67
2021/07/07 04:29:27;;;;;;;1.50;0.63;;;21.80;60.90;;;;;;5016140;28;20026;-68
2021/07/07 04:31:56;;;;;;;1.98;0.65;;;21.80;61.00;;;;;;5017172;28;20090;-67
2021/07/07 04:34:22;;;;;;;1.58;0.70;;;21.70;61.00;;;;;;5017625;28;20026;-67
2021/07/07 04:36:48;;;;;;;2.40;0.73;;;21.70;61.00;;;;;;5017317;28;20045;-68
2021/07/07 04:39:13;;;;;;;2.50;0.77;;;21.80;60.90;;;;;;5017268;28;20612;-68
2021/07/07 04:41:39;;;;;;;2.25;0.75;;;21.80;60.80;;;;;;5017452;28;20444;-67
2021/07/07 04:44:05;;;;;;;3.92;0.73;;;21.80;60.80;;;;;;5017185;28;20032;-68
2021/07/07 04:46:30;;;;;;;1.13;0.60;;;21.80;60.80;;;;;;5017233;28;20101;-68
2021/07/07 04:48:56;;;;;;;2.17;0.80;;;21.80;60.70;;;;;;5017137;28;20057;-67
2021/07/07 04:51:21;;;;;;;1.65;0.77;;;21.80;60.70;;;;;;5017154;28;20037;-68
2021/07/07 04:53:47;;;;;;;1.48;0.50;;;21.80;60.70;;;;;;5017162;28;20468;-67
2021/07/07 04:56:12;;;;;;;1.65;0.70;;;21.80;60.70;;;;;;5017148;28;20032;-68
2021/07/07 04:58:41;;;;;;;3.72;0.90;;;21.90;60.60;;;;;;5017152;28;20108;-68
2021/07/07 05:01:06;;;;;;;2.50;0.82;;;21.90;60.30;;;;;;5017110;28;20025;-67
2021/07/07 05:03:32;;;;;;;2.25;0.60;;;22.00;60.40;;;;;;5016942;28;20551;-67
2021/07/07 05:05:58;;;;;;;2.53;0.80;;;21.80;60.50;;;;;;5017372;28;20034;-68
2021/07/07 05:08:23;;;;;;;1.67;0.73;;;21.90;60.40;;;;;;5017328;28;20084;-68
2021/07/07 05:10:49;;;;;;;2.55;0.70;;;21.90;60.40;;;;;;5016970;28;20084;-67
2021/07/07 05:13:17;;;;;;;3.15;1.02;;;21.90;60.40;;;;;;5016856;28;20435;-68
2021/07/07 05:15:42;;;;;;;2.58;0.73;;;21.90;60.40;;;;;;5017037;28;20022;-68
2021/07/07 05:18:10;;;;;;;2.40;0.70;;;21.80;60.40;;;;;;5016924;28;20025;-68
2021/07/07 05:20:36;;;;;;;1.25;0.60;;;21.90;60.40;;;;;;5016906;28;20056;-67
2021/07/07 05:23:06;;;;;;;2.35;0.82;;;21.90;60.40;;;;;;5017002;28;20087;-67
2021/07/07 05:25:33;;;;;;;1.60;0.73;;;21.90;60.40;;;;;;5016962;28;20026;-67
2021/07/07 05:28:01;;;;;;;1.83;0.80;;;21.80;60.40;;;;;;5016615;28;20104;-71
2021/07/07 05:30:26;;;;;;;3.58;0.80;;;21.90;60.30;;;;;;5016332;28;20033;-67
2021/07/07 05:32:53;;;;;;;1.27;0.65;;;21.90;60.20;;;;;;5036858;28;20164;-67
2021/07/07 05:35:18;;;;;;;2.15;0.77;;;21.90;60.40;;;;;;5035577;28;20022;-68
2021/07/07 05:37:47;;;;;;;1.85;0.60;;;21.90;60.40;;;;;;5027947;28;20052;-69
2021/07/07 05:40:17;;;;;;;3.38;0.70;;;21.90;60.30;;;;;;5040120;28;20037;-68
2021/07/07 05:42:45;;;;;;;2.85;1.08;;;21.90;60.20;;;;;;5033870;28;20056;-68
2021/07/07 05:45:11;;;;;;;4.28;0.50;;;21.90;60.20;;;;;;5024863;28;20028;-68
2021/07/07 05:47:37;;;;;;;2.22;0.75;;;22.00;60.20;;;;;;5044806;28;20036;-67
2021/07/07 05:50:03;;;;;;;1.45;0.55;;;22.00;60.20;;;;;;5044924;28;20029;-68
2021/07/07 05:52:29;;;;;;;1.90;0.70;;;22.00;60.20;;;;;;5040898;28;20021;-67
2021/07/07 05:54:55;;;;;;;2.40;0.90;;;22.00;60.20;;;;;;5036365;28;20085;-68
2021/07/07 05:57:24;;;;;;;1.38;0.70;;;22.00;60.20;;;;;;5035892;28;20060;-67
2021/07/07 05:59:50;;;;;;;1.23;0.60;;;22.00;60.20;;;;;;5034841;28;20021;-67
2021/07/07 06:02:16;;;;;;;1.88;0.70;;;22.00;60.20;;;;;;5050144;28;20033;-68
2021/07/07 06:04:42;;;;;;;3.72;1.20;;;22.00;60.20;;;;;;5054635;28;20024;-67
2021/07/07 06:07:08;;;;;;;2.13;0.80;;;22.00;60.10;;;;;;5054399;28;20072;-67
2021/07/07 06:09:34;;;;;;;4.88;1.25;;;22.00;60.10;;;;;;5054486;28;20481;-67
2021/07/07 06:11:59;;;;;;;1.88;0.77;;;22.00;60.10;;;;;;5054295;28;20021;-67
2021/07/07 06:14:25;;;;;;;2.92;0.80;;;22.00;60.10;;;;;;5054410;28;20024;-67
2021/07/07 06:16:50;;;;;;;2.67;0.80;;;22.00;60.10;;;;;;5053567;28;20059;-67
2021/07/07 06:19:16;;;;;;;2.60;0.85;;;22.00;60.10;;;;;;5054221;28;20138;-67
2021/07/07 06:21:42;;;;;;;2.28;0.70;;;22.00;60.10;;;;;;5054029;28;20075;-67
2021/07/07 06:24:07;;;;;;;1.65;0.85;;;22.00;60.00;;;;;;5054154;28;20029;-67
2021/07/07 06:26:34;;;;;;;1.98;0.85;;;22.10;60.00;;;;;;5025162;28;20022;-67
2021/07/07 06:29:04;;;;;;;1.95;0.80;;;22.10;60.00;;;;;;5032100;28;20021;-67
2021/07/07 06:31:31;;;;;;;2.08;0.85;;;22.10;59.90;;;;;;5036755;28;20036;-67
2021/07/07 06:33:56;;;;;;;2.00;0.80;;;22.10;59.90;;;;;;5036564;28;20056;-67
2021/07/07 06:36:22;;;;;;;2.25;0.80;;;22.10;59.90;;;;;;5033608;28;20124;-67
2021/07/07 06:38:47;;;;;;;2.20;0.65;;;22.10;59.90;;;;;;5033894;28;20444;-67
2021/07/07 06:41:13;;;;;;;2.80;1.10;;;22.10;59.90;;;;;;5033737;28;20029;-67
2021/07/07 06:43:38;;;;;;;2.17;0.68;;;22.20;59.90;;;;;;5034268;28;20032;-67
2021/07/07 06:46:04;;;;;;;3.95;0.70;;;22.10;59.90;;;;;;5033874;28;20105;-66
2021/07/07 06:48:29;;;;;;;2.75;0.90;;;22.10;59.80;;;;;;5037571;28;20370;-65
2021/07/07 06:50:55;;;;;;;2.35;0.80;;;22.20;59.90;;;;;;5040102;28;20033;-67
2021/07/07 06:53:23;;;;;;;1.50;0.65;;;22.20;59.90;;;;;;5031818;28;20025;-64
2021/07/07 06:55:49;;;;;;;2.05;0.80;;;22.20;59.80;;;;;;5032142;28;20026;-65
2021/07/07 06:58:15;;;;;;;4.25;0.70;;;22.20;59.90;;;;;;5033455;28;20102;-64
2021/07/07 07:00:41;;;;;;;1.77;0.70;;;22.20;59.80;;;;;;5032397;28;20505;-65
2021/07/07 07:03:07;;;;;;;3.30;0.98;;;22.20;59.90;;;;;;5033531;28;20156;-64
2021/07/07 07:05:34;;;;;;;2.80;1.02;;;22.20;59.80;;;;;;5032129;28;20373;-66
2021/07/07 07:08:00;;;;;;;2.42;0.70;;;22.30;59.80;;;;;;5032352;28;20660;-66
2021/07/07 07:10:26;;;;;;;3.90;0.88;;;22.30;59.70;;;;;;5032003;28;20114;-65
2021/07/07 07:12:51;;;;;;;2.13;0.80;;;22.30;59.80;;;;;;5032393;28;20065;-63
2021/07/07 07:15:17;;;;;;;3.55;0.75;;;22.30;59.80;;;;;;5031071;28;20032;-67
2021/07/07 07:17:43;;;;;;;4.50;1.00;;;22.30;59.80;;;;;;5029029;28;20160;-69
2021/07/07 07:20:13;;;;;;;3.10;0.82;;;22.30;59.80;;;;;;5032508;28;20026;-66
2021/07/07 07:22:39;;;;;;;2.38;0.75;;;22.30;59.80;;;;;;5031996;28;20022;-65
2021/07/07 07:25:06;;;;;;;1.67;0.90;;;22.30;59.70;;;;;;5026603;28;20049;-66
2021/07/07 07:27:32;;;;;;;2.92;0.75;;;22.30;59.70;;;;;;5012042;28;20022;-65
2021/07/07 07:29:57;;;;;;;3.75;0.80;;;22.30;59.80;;;;;;5021985;28;20492;-66
2021/07/07 07:32:23;;;;;;;2.47;0.82;;;22.40;59.80;;;;;;5031496;28;20049;-66
2021/07/07 07:34:48;;;;;;;2.60;0.77;;;22.40;59.80;;;;;;5031916;28;20029;-66
2021/07/07 07:37:21;;;;;;;3.70;1.00;;;22.30;59.80;;;;;;5030304;28;20494;-67
2021/07/07 07:39:51;;;;;;;4.25;0.77;;;22.40;59.70;;;;;;5031471;28;20045;-65
2021/07/07 07:42:17;;;;;;;2.33;0.80;;;22.40;59.70;;;;;;5031849;28;20039;-66
2021/07/07 07:44:44;;;;;;;2.20;0.77;;;22.40;59.70;;;;;;5032248;28;20025;-66
2021/07/07 07:47:14;;;;;;;3.97;0.88;;;22.40;59.70;;;;;;5032581;28;20124;-65
2021/07/07 07:49:39;;;;;;;2.45;0.80;;;22.40;59.70;;;;;;5031435;28;20029;-65
2021/07/07 07:52:06;;;;;;;2.83;0.90;;;22.40;59.70;;;;;;5031515;28;20194;-65
2021/07/07 07:54:33;;;;;;;2.67;0.95;;;22.50;59.70;;;;;;5031841;28;20091;-66
2021/07/07 07:56:59;;;;;;;3.60;1.02;;;22.50;59.60;;;;;;5025497;28;20512;-67
2021/07/07 07:59:25;;;;;;;7.07;1.52;;;22.30;58.00;;;;;;5027400;28;20025;-68
2021/07/07 08:01:51;;;;;;;3.97;0.93;;;22.30;58.30;;;;;;5028439;28;20034;-67
2021/07/07 08:04:18;;;;;;;5.25;0.70;;;22.40;59.30;;;;;;5014635;28;20026;-64
2021/07/07 08:06:44;;;;;;;6.88;1.02;;;22.40;59.10;;;;;;5031415;28;20033;-65
2021/07/07 08:09:09;;;;;;;3.42;0.82;;;22.40;59.20;;;;;;5015885;28;20025;-66
2021/07/07 08:11:35;;;;;;;2.40;0.90;;;22.40;59.20;;;;;;5033056;28;20115;-65
2021/07/07 08:14:00;;;;;;;4.53;1.00;;;22.50;59.10;;;;;;5013695;28;20072;-65
2021/07/07 08:16:26;;;;;;;2.40;0.90;;;22.50;59.10;;;;;;5026321;28;20068;-63
2021/07/07 08:18:51;;;;;;;4.75;0.90;;;22.50;59.10;;;;;;5023808;28;20500;-64
2021/07/07 08:21:19;;;;;;;4.05;0.90;;;22.50;59.00;;;;;;5017864;28;20025;-64
2021/07/07 08:23:45;;;;;;;3.70;1.00;;;22.50;59.10;;;;;;5029361;28;20033;-64
2021/07/07 08:26:10;;;;;;;2.85;1.20;;;22.50;59.10;;;;;;5028009;28;20093;-64
2021/07/07 08:28:36;;;;;;;3.33;1.10;;;22.50;59.00;;;;;;5028052;28;20366;-64
2021/07/07 08:31:01;;;;;;;3.42;0.95;;;22.50;59.00;;;;;;5017965;28;20040;-64
2021/07/07 08:33:27;;;;;;;2.80;1.00;;;22.50;59.00;;;;;;5033599;28;20060;-63
2021/07/07 08:35:53;;;;;;;2.53;0.80;;;22.50;59.00;;;;;;5038175;28;20068;-64
2021/07/07 08:38:18;;;;;;;5.28;1.20;;;22.60;59.00;;;;;;5027941;28;20496;-65
2021/07/07 08:40:44;;;;;;;5.82;1.20;;;22.50;59.00;;;;;;5029256;28;20026;-64
2021/07/07 08:43:10;;;;;;;7.13;1.40;;;22.60;59.00;;;;;;5018049;28;20029;-64
2021/07/07 08:45:36;;;;;;;5.68;1.33;;;22.60;59.10;;;;;;5028359;28;20041;-64
2021/07/07 08:48:02;;;;;;;4.10;0.90;;;22.60;59.10;;;;;;5012971;28;20025;-65
2021/07/07 08:50:30;;;;;;;9.13;0.90;;;22.60;59.10;;;;;;5026262;28;20036;-65
2021/07/07 08:52:59;;;;;;;5.82;1.38;;;22.60;59.10;;;;;;5015984;28;20057;-65
2021/07/07 08:55:25;;;;;;;4.13;0.93;;;22.60;59.00;;;;;;5018935;28;20018;-65
2021/07/07 08:57:51;;;;;;;5.93;1.23;;;22.70;59.00;;;;;;5022733;28;20088;-64
2021/07/07 09:00:21;;;;;;;3.42;1.00;;;22.70;59.00;;;;;;5010676;28;20112;-65
2021/07/07 09:02:55;;;;;;;3.45;0.90;;;22.60;59.20;;;;;;5020990;28;20025;-65
2021/07/07 09:05:21;;;;;;;;;;;22.70;59.10;;;;;;5020834;28;20033;-64
2021/07/07 09:07:47;;;;;;;4.00;0.90;;;22.70;59.10;;;;;;5024153;28;19912;-64
2021/07/07 09:10:16;;;;;;;5.07;1.17;;;22.70;59.10;;;;;;5019143;28;20029;-63
2021/07/07 09:12:42;;;;;;;3.45;1.08;;;22.70;59.10;;;;;;5017470;28;20022;-64
2021/07/07 09:15:11;;;;;;;3.20;0.80;;;22.70;59.10;;;;;;5043279;28;20113;-64
2021/07/07 09:17:43;;;;;;;3.70;1.00;;;22.80;59.00;;;;;;5028322;28;20452;-65
2021/07/07 09:20:20;;;;;;;2.33;0.63;;;22.80;59.00;;;;;;5021303;28;20026;-66
2021/07/07 09:22:48;;;;;;;3.28;0.95;;;22.80;59.10;;;;;;5025301;28;20511;-65
2021/07/07 09:25:14;;;;;;;6.18;1.45;;;22.80;59.00;;;;;;5032983;28;20017;-65
2021/07/07 09:27:40;;;;;;;4.50;1.17;;;22.80;59.00;;;;;;5033355;28;20026;-67
2021/07/07 09:30:08;;;;;;;3.90;1.10;;;22.90;59.00;;;;;;5026149;28;20028;-67
2021/07/07 09:32:41;;;;;;;5.15;0.90;;;22.90;58.90;;;;;;5023435;28;20060;-66
2021/07/07 09:35:07;;;;;;;1.85;0.85;;;22.90;58.90;;;;;;5024902;28;20025;-65
2021/07/07 09:37:45;;;;;;;1.77;0.80;;;22.90;58.90;;;;;;5024624;28;20045;-65
2021/07/07 09:40:12;;;;;;;4.03;1.10;;;22.80;58.90;;;;;;5032389;28;20097;-65
2021/07/07 09:42:39;;;;;;;3.63;1.08;;;22.90;58.80;;;;;;5033768;28;20393;-65
2021/07/07 09:45:08;;;;;;;2.42;0.82;;;22.90;58.80;;;;;;5017544;28;20022;-64
2021/07/07 09:47:34;;;;;;;4.68;0.98;;;22.90;58.80;;;;;;5034166;28;20033;-65
2021/07/07 09:50:00;;;;;;;3.28;0.80;;;22.90;58.80;;;;;;5024025;28;20041;-67
2021/07/07 09:52:28;;;;;;;4.22;1.15;;;22.90;58.80;;;;;;5014819;28;20025;-72
2021/07/07 09:54:55;;;;;;;3.53;0.90;;;23.00;58.80;;;;;;5030770;28;20591;-70
2021/07/07 09:57:22;;;;;;;2.85;1.05;;;23.00;58.70;;;;;;5016191;28;20049;-70
2021/07/07 09:59:48;;;;;;;4.50;1.08;;;23.00;58.80;;;;;;5023221;28;20026;-68
2021/07/07 10:02:14;;;;;;;2.05;0.80;;;22.90;58.80;;;;;;5035996;28;20029;-69
2021/07/07 10:04:43;;;;;;;4.57;1.08;;;23.00;58.80;;;;;;5015610;28;20392;-67
2021/07/07 10:07:13;;;;;;;6.03;1.25;;;22.90;58.80;;;;;;5032943;28;20084;-65
2021/07/07 10:09:43;;;;;;;2.17;0.90;;;23.00;58.80;;;;;;5027947;28;20034;-67
2021/07/07 10:12:09;;;;;;;4.07;1.20;;;23.00;58.90;;;;;;5020451;28;20069;-67
2021/07/07 10:14:35;;;;;;;4.07;1.20;;;23.00;58.90;;;;;;5026678;28;20032;-65
2021/07/07 10:17:02;;;;;;;4.32;1.10;;;23.00;58.80;;;;;;5027360;28;20129;-69
2021/07/07 10:19:27;;;;;;;3.40;1.05;;;23.10;58.70;;;;;;5028297;28;20384;-68
2021/07/07 10:21:55;;;;;;;3.40;1.00;;;23.00;58.70;;;;;;5023145;28;20025;-70
2021/07/07 10:24:24;;;;;;;5.72;1.10;;;23.10;58.70;;;;;;5028743;28;20033;-68
2021/07/07 10:26:52;;;;;;;5.47;1.08;;;23.00;58.70;;;;;;5028012;28;20034;-69
2021/07/07 10:29:18;;;;;;;4.63;1.20;;;23.10;58.60;;;;;;5028423;28;20048;-66
2021/07/07 10:31:50;;;;;;;6.13;1.25;;;23.10;58.70;;;;;;5026264;28;20033;-67
2021/07/07 10:34:17;;;;;;;5.13;1.13;;;23.10;58.70;;;;;;5026995;28;20040;-70
2021/07/07 10:36:43;;;;;;;3.83;1.10;;;23.10;58.70;;;;;;5021493;28;20045;-68
2021/07/07 10:39:12;;;;;;;4.80;1.10;;;23.10;58.70;;;;;;5025677;28;20030;-70
2021/07/07 10:41:44;;;;;;;3.72;0.98;;;23.10;58.70;;;;;;5021518;28;20479;-75
2021/07/07 10:44:31;;;;;;;4.03;1.50;;;23.10;58.70;;;;;;5014059;28;20056;-71
2021/07/07 10:47:02;;;;;;;5.53;1.17;;;23.10;58.70;;;;;;5016210;28;20041;-72
2021/07/07 10:49:36;;;;;;;4.85;1.30;;;23.10;58.60;;;;;;5021127;28;20444;-69
2021/07/07 10:52:03;;;;;;;3.30;0.95;;;23.20;58.60;;;;;;5027633;28;20505;-67
2021/07/07 10:54:33;;;;;;;5.00;0.98;;;23.20;58.60;;;;;;5023896;28;20035;-68
2021/07/07 10:57:02;;;;;;;6.35;1.35;;;23.20;58.70;;;;;;5029437;28;20120;-66
2021/07/07 10:59:35;;;;;;;6.25;1.20;;;23.20;58.60;;;;;;5023011;28;20039;-66
2021/07/07 11:02:09;;;;;;;6.43;1.50;;;23.20;58.40;;;;;;5032378;28;20037;-66
2021/07/07 11:04:39;;;;;;;5.28;1.20;;;23.30;58.30;;;;;;5019631;28;20026;-66
2021/07/07 11:07:35;;;;;;;2.47;1.02;;;23.30;58.20;;;;;;5030894;28;20034;-67
2021/07/07 11:10:08;;;;;;;3.63;1.10;;;23.30;58.20;;;;;;5027858;28;20052;-67
2021/07/07 11:12:36;;;;;;;3.00;1.10;;;23.20;58.20;;;;;;5041018;28;20027;-68
2021/07/07 11:15:07;;;;;;;3.75;1.00;;;23.20;58.20;;;;;;5044928;28;20032;-65
2021/07/07 11:17:34;;;;;;;5.20;1.20;;;23.20;58.20;;;;;;5031031;28;20072;-69
2021/07/07 11:20:15;;;;;;;7.38;1.17;;;23.20;58.30;;;;;;5029344;28;20030;-70
2021/07/07 11:22:44;;;;;;;3.72;1.15;;;23.20;58.20;;;;;;5028753;28;20029;-72
2021/07/07 11:25:12;;;;;;;4.97;1.42;;;23.30;58.20;;;;;;5026639;28;20030;-71
2021/07/07 11:27:39;;;;;;;3.83;1.08;;;23.20;58.20;;;;;;5033314;28;20061;-68
2021/07/07 11:30:08;;;;;;;21.77;1.58;;;23.20;58.20;;;;;;5032683;28;20056;-69
2021/07/07 11:32:39;;;;;;;4.60;1.10;;;23.20;58.20;;;;;;5034053;28;20049;-67
2021/07/07 11:35:10;;;;;;;4.38;1.00;;;23.20;58.20;;;;;;5033002;28;20032;-68
2021/07/07 11:37:37;;;;;;;3.67;1.30;;;23.30;57.90;;;;;;5033504;28;20477;-67
2021/07/07 11:40:16;;;;;;;3.63;1.13;;;23.20;58.10;;;;;;5021805;28;20033;-65
2021/07/07 11:43:03;;;;;;;6.82;1.38;;;23.20;58.20;;;;;;5033773;28;20033;-68
2021/07/07 11:45:39;;;;;;;2.55;1.00;;;23.20;58.10;;;;;;5031392;28;20029;-70
2021/07/07 11:48:52;;;;;;;3.42;1.02;;;23.20;58.20;;;;;;5038054;28;20106;-68
2021/07/07 11:51:03;;;;;;;5.93;1.20;;;23.20;58.00;;;;;;5015147;28;20133;-66
2021/07/07 11:53:41;;;;;;;3.88;1.23;;;23.20;58.20;;;;;;5012921;28;20034;-66
2021/07/07 11:56:16;;;;;;;5.72;1.83;;;23.20;58.40;;;;;;5039484;28;20498;-66
2021/07/07 11:58:44;;;;;;;5.25;1.33;;;23.20;58.40;;;;;;5015814;28;20061;-65
2021/07/07 12:01:26;;;;;;;5.43;1.70;;;23.20;58.40;;;;;;5012430;28;20037;-67
2021/07/07 12:04:06;;;;;;;8.90;1.38;;;23.20;58.40;;;;;;5022135;28;20042;-67
2021/07/07 12:06:44;;;;;;;8.50;1.50;;;23.30;58.30;;;;;;5021028;28;20477;-68
2021/07/07 12:09:17;;;;;;;5.85;1.67;;;23.30;58.20;;;;;;5029982;28;20018;-67
2021/07/07 12:11:55;;;;;;;5.35;1.63;;;23.40;58.20;;;;;;5043451;28;20048;-66
2021/07/07 12:14:23;;;;;;;7.22;1.35;;;23.40;58.10;;;;;;5021419;28;20054;-67
2021/07/07 12:16:50;;;;;;;4.40;1.25;;;23.40;58.10;;;;;;5025134;28;20037;-68
2021/07/07 12:19:17;;;;;;;4.75;1.38;;;23.50;57.80;;;;;;5021895;28;20026;-66
2021/07/07 12:21:48;;;;;;;5.68;1.35;;;23.50;57.90;;;;;;5035501;28;20059;-65
2021/07/07 12:24:35;;;;;;;4.78;1.10;;;23.50;57.70;;;;;;5043115;28;20093;-67
2021/07/07 12:27:03;;;;;;;3.75;1.10;;;23.50;57.80;;;;;;5024303;28;20108;-66
2021/07/07 12:29:34;;;;;;;4.70;1.30;;;23.50;57.60;;;;;;5022833;28;20030;-68
2021/07/07 12:32:04;;;;;;;6.88;1.58;;;23.50;57.60;;;;;;5011936;28;20030;-66
2021/07/07 12:34:36;;;;;;;6.40;1.20;;;23.60;57.40;;;;;;5013545;28;20072;-65
2021/07/07 12:37:05;;;;;;;6.07;1.60;;;23.60;57.40;;;;;;5024615;28;20041;-67
2021/07/07 12:39:35;;;;;;;5.43;1.40;;;23.60;57.30;;;;;;5020118;28;20030;-69
2021/07/07 12:42:05;;;;;;;3.85;1.33;;;23.60;57.30;;;;;;5023257;28;20026;-65
2021/07/07 12:44:35;;;;;;;5.00;1.20;;;23.70;57.40;;;;;;5023477;28;20043;-66
2021/07/07 12:47:17;;;;;;;2.47;1.00;;;23.70;57.30;;;;;;5025086;28;20022;-66
2021/07/07 12:49:54;;;;;;;4.95;1.30;;;23.70;57.20;;;;;;5031249;28;20092;-67
2021/07/07 12:52:25;;;;;;;4.45;1.40;;;23.80;57.10;;;;;;5033031;28;20043;-66